Spabunker 21 — EAFF — position and weather

sailwx.info

Track history (hours):
 
Tides and Currents Weather Stations Pressure Air Temp Water Temp Dewpoint Dewpoint Depression Visibility Wind Speed Wind Dir Waves Ship Positions

Spabunker 21

Last reported at 2015-Apr-05 07:31 UTC. Time now 2015-Apr-27 22:11 UTC.
Position N 28°29' W 016°13'.
Warning: this ship's position is 22 days out of date.

Length 82 m; draft 4.9 m.

Type: Ship. MMSI: 224976000.

Date/timePositionNaut miles runAvg speedWind from/ knotsBaromVisibWave heightAir tempDewpointWater temp
2015-Apr-05 07:31N 28°29' W 016°13'0 0.0
2015-Apr-05 01:10N 28°29' W 016°13'0 0.0
2015-Apr-03 13:30N 28°29' W 016°14'0 0.0
2015-Apr-03 07:33N 28°29' W 016°13'0 0.0
2015-Apr-03 04:05N 28°29' W 016°13'1 0.2
2015-Apr-02 23:19N 28°29' W 016°12'0 0.1
2015-Apr-02 22:17N 28°29' W 016°12'0 0.0
2015-Apr-02 19:27N 28°29' W 016°13'1 0.1
2015-Apr-02 14:27N 28°29' W 016°13'0 0.2
2015-Apr-02 12:33N 28°29' W 016°14'0 0.0
2015-Apr-02 09:31N 28°29' W 016°14'0 0.0
2015-Apr-02 08:21N 28°29' W 016°14'0 0.2
2015-Apr-02 06:26N 28°29' W 016°13'0 0.0
2015-Apr-02 05:14N 28°29' W 016°13'0 0.0
2015-Apr-02 04:33N 28°29' W 016°13'0 0.0
2015-Apr-02 03:30N 28°29' W 016°13'0 0.0
2015-Apr-02 02:33N 28°29' W 016°13'0 0.0
2015-Apr-02 01:32N 28°29' W 016°13'2 0.1
2015-Apr-01 10:08N 28°28' W 016°15'2 2.0
2015-Apr-01 09:20N 28°29' W 016°13'0 0.0
2015-Apr-01 08:27N 28°29' W 016°13'0 0.0
2015-Apr-01 07:31N 28°29' W 016°13'0 0.0
2015-Apr-01 06:33N 28°29' W 016°13'1 0.0
2015-Mar-31 13:08N 28°29' W 016°12'1 1.3
2015-Mar-31 12:26N 28°29' W 016°13'0 0.0
2015-Mar-31 11:33N 28°29' W 016°13'0 0.0
2015-Mar-31 10:34N 28°29' W 016°13'0 0.0
2015-Mar-31 09:34N 28°29' W 016°13'0 0.0
2015-Mar-31 08:33N 28°29' W 016°13'0 0.0
2015-Mar-31 07:32N 28°29' W 016°13'1 0.3
2015-Mar-31 02:07N 28°29' W 016°12'1 0.0
2015-Mar-28 22:13N 28°29' W 016°13'0 0.0
2015-Mar-28 21:30N 28°29' W 016°13'  
Track history (hours):
 
Tides and Currents Weather Stations Pressure Air Temp Water Temp Dewpoint Dewpoint Depression Visibility Wind Speed Wind Dir Waves Ship Positions

Spabunker 21

Last reported at 2015-Apr-05 07:31 UTC. Time now 2015-Apr-27 22:11 UTC.
Position N 28°29' W 016°13'.
Warning: this ship's position is 22 days out of date.

Length 82 m; draft 4.9 m.

Type: Ship. MMSI: 224976000.

Date/timePositionNaut miles runAvg speedWind from/ knotsBaromVisibWave heightAir tempDewpointWater temp
2015-Apr-05 07:31N 28°29' W 016°13'0 0.0
2015-Apr-05 01:10N 28°29' W 016°13'0 0.0
2015-Apr-03 13:30N 28°29' W 016°14'0 0.0
2015-Apr-03 07:33N 28°29' W 016°13'0 0.0
2015-Apr-03 04:05N 28°29' W 016°13'1 0.2
2015-Apr-02 23:19N 28°29' W 016°12'0 0.1
2015-Apr-02 22:17N 28°29' W 016°12'0 0.0
2015-Apr-02 19:27N 28°29' W 016°13'1 0.1
2015-Apr-02 14:27N 28°29' W 016°13'0 0.2
2015-Apr-02 12:33N 28°29' W 016°14'0 0.0
2015-Apr-02 09:31N 28°29' W 016°14'0 0.0
2015-Apr-02 08:21N 28°29' W 016°14'0 0.2
2015-Apr-02 06:26N 28°29' W 016°13'0 0.0
2015-Apr-02 05:14N 28°29' W 016°13'0 0.0
2015-Apr-02 04:33N 28°29' W 016°13'0 0.0
2015-Apr-02 03:30N 28°29' W 016°13'0 0.0
2015-Apr-02 02:33N 28°29' W 016°13'0 0.0
2015-Apr-02 01:32N 28°29' W 016°13'2 0.1
2015-Apr-01 10:08N 28°28' W 016°15'2 2.0
2015-Apr-01 09:20N 28°29' W 016°13'0 0.0
2015-Apr-01 08:27N 28°29' W 016°13'0 0.0
2015-Apr-01 07:31N 28°29' W 016°13'0 0.0
2015-Apr-01 06:33N 28°29' W 016°13'1 0.0
2015-Mar-31 13:08N 28°29' W 016°12'1 1.3
2015-Mar-31 12:26N 28°29' W 016°13'0 0.0
2015-Mar-31 11:33N 28°29' W 016°13'0 0.0
2015-Mar-31 10:34N 28°29' W 016°13'0 0.0
2015-Mar-31 09:34N 28°29' W 016°13'0 0.0
2015-Mar-31 08:33N 28°29' W 016°13'0 0.0
2015-Mar-31 07:32N 28°29' W 016°13'1 0.3
2015-Mar-31 02:07N 28°29' W 016°12'1 0.0
2015-Mar-28 22:13N 28°29' W 016°13'0 0.0
2015-Mar-28 21:30N 28°29' W 016°13'  

Dump ship's entire track history